Urbana, IN (46990)

1:11 PM EST on February 09, 2016 (GMT -0500)
Wabash Co. Central Dispatch | | Change Station
CLOSE
Current Station
Personal Weather Station
Location: Wabash, IN
Elevation: 764 ft
Nearby Weather Stations

Elev 764 ft 40.82 °N, 85.80 °W | Updated 21 seconds ago

Overcast
Overcast
23.0 °F
Feels Like 23 °F
N
0.0
Wind Variable Wind from East
Gusts 5.0 mph

Today
High -- | Low -- °F
--% Chance of Precip.
Yesterday
High -- | Low -- °F
Precip. -- in
Pressure 29.71 in
Visibility 7.0 miles
Clouds Mostly Cloudy 1800 ft
Mostly Cloudy 2400 ft
Overcast 3200 ft
Windchill 23 °F
Dew Point 19 °F
Humidity 86%
Rainfall 0.00 in
Snow Depth Not available.
7:45 AM 6:09 PM
New Moon, 2% visible
METAR KASW 091755Z AUTO 31014G18KT 7SM BKN018 BKN024 OVC032 M02/M06 A2971 RMK AO2
Pressure 29.71 in
Visibility 7.0 miles
Clouds Mostly Cloudy 1800 ft
Mostly Cloudy 2400 ft
Overcast 3200 ft
Windchill 23 °F
Dew Point 19 °F
Humidity 86%
Rainfall 0.00 in
Snow Depth Not available.
7:45 AM 6:09 PM
New Moon, 2% visible
METAR KASW 091755Z AUTO 31014G18KT 7SM BKN018 BKN024 OVC032 M02/M06 A2971 RMK AO2

10-Day Weather Forecast

Almanac

Astronomy

Feb. 09, 2016 Rise Set
Actual Time
Civil Twilight
Nautical Twilight
Astronomical Twilight
Moon
Length of Visible Light
Length of Day
Tomorrow will be .
, % of the Moon is Illuminated

Today's Extremes

State Highs State Lows

Community

WunderPhotos

Upload Photos

1,891,651 photos uploaded!

WunderBlog® & News

Nearby

Air Quality

  Air Quality AQ Index Pollutant
Not available.

Snow Depth

Station Depth Elevation

Earthquake Activity

City Distance Mag. Time & Date
Minimum magnitude displayed is 2.5.

Coastal Water Temperatures

Place Temperature

Stations

Nearby Weather Stations

Station Location Temp. Windchill Dew Point Humidity Wind Precip. Elev Updated Type
                   

Watches & Warnings

There are currently no watches in effect.